createdAt,value
2022-10-23T00:02:03.840Z,5.30
2022-10-23T00:04:38.837Z,6.30
2022-10-23T00:07:07.136Z,5.93
2022-10-23T00:09:35.617Z,5.90
2022-10-23T00:12:07.894Z,5.87
2022-10-23T00:14:43.278Z,6.10
2022-10-23T00:17:12.950Z,6.37
2022-10-23T00:19:41.329Z,6.07
2022-10-23T00:22:12.095Z,5.67
2022-10-23T00:24:40.806Z,6.03
2022-10-23T00:27:11.926Z,6.03
2022-10-23T00:29:41.335Z,6.30
2022-10-23T00:32:09.610Z,5.40
2022-10-23T00:34:40.513Z,5.83
2022-10-23T00:37:08.956Z,6.37
2022-10-23T00:39:37.840Z,6.13
2022-10-23T00:42:06.329Z,5.77
2022-10-23T00:45:15.209Z,6.20
2022-10-23T00:47:43.807Z,5.73
2022-10-23T00:50:12.202Z,6.27
2022-10-23T00:52:46.644Z,6.63
2022-10-23T00:55:16.108Z,6.90
2022-10-23T00:57:46.388Z,6.40
2022-10-23T01:00:21.330Z,6.63
2022-10-23T01:02:50.321Z,6.67
2022-10-23T01:05:19.611Z,6.03
2022-10-23T01:07:55.802Z,5.90
2022-10-23T01:10:35.456Z,5.90
2022-10-23T01:13:10.494Z,7.10
2022-10-23T01:15:48.515Z,6.90
2022-10-23T01:18:31.772Z,5.87
2022-10-23T01:21:10.250Z,6.63
2022-10-23T01:24:06.544Z,6.70
2022-10-23T01:26:47.351Z,7.07
2022-10-23T01:29:23.380Z,6.17
2022-10-23T01:31:57.083Z,6.63
2022-10-23T01:34:30.432Z,6.90
2022-10-23T01:37:02.524Z,5.90
2022-10-23T01:39:37.895Z,6.43
2022-10-23T01:42:10.699Z,6.70
2022-10-23T01:44:46.806Z,6.43
2022-10-23T01:47:17.900Z,5.47
2022-10-23T01:49:48.319Z,7.20
2022-10-23T01:52:22.622Z,6.10
2022-10-23T01:54:53.433Z,7.13
2022-10-23T01:57:24.945Z,7.20
2022-10-23T01:59:58.340Z,7.13
2022-10-23T02:02:30.388Z,6.60
2022-10-23T02:05:05.338Z,6.53
2022-10-23T02:07:33.825Z,7.20
2022-10-23T02:10:04.031Z,6.27
2022-10-23T02:12:41.936Z,6.77
2022-10-23T02:15:15.468Z,6.80
2022-10-23T02:17:53.186Z,6.70
2022-10-23T02:20:26.070Z,6.83
2022-10-23T02:23:04.064Z,7.07
2022-10-23T02:25:36.920Z,7.40
2022-10-23T02:28:12.609Z,7.20
2022-10-23T02:31:06.550Z,7.23
2022-10-23T02:33:36.705Z,6.90
2022-10-23T02:36:06.062Z,7.67
2022-10-23T02:38:43.757Z,7.00
2022-10-23T02:41:32.791Z,7.73
2022-10-23T02:44:22.996Z,7.23
2022-10-23T02:47:17.506Z,7.83
2022-10-23T02:49:53.442Z,7.40
2022-10-23T02:52:27.691Z,6.57
2022-10-23T02:55:10.901Z,7.33
2022-10-23T02:57:45.020Z,7.37
2022-10-23T03:00:16.788Z,6.40
2022-10-23T03:03:04.050Z,6.80
2022-10-23T03:05:38.202Z,6.63
2022-10-23T03:08:12.207Z,6.87
2022-10-23T03:10:43.544Z,7.33
2022-10-23T03:13:14.991Z,7.00
2022-10-23T03:15:43.357Z,6.40
2022-10-23T03:18:15.882Z,7.40
2022-10-23T03:20:46.840Z,6.00
2022-10-23T03:23:15.572Z,6.10
2022-10-23T03:25:45.136Z,6.57
2022-10-23T03:28:13.472Z,6.53
2022-10-23T03:30:50.752Z,5.60
2022-10-23T03:33:28.005Z,4.90
2022-10-23T03:35:59.157Z,4.77
2022-10-23T03:38:27.604Z,4.23
2022-10-23T03:40:58.195Z,3.90
2022-10-23T03:43:26.544Z,3.40
2022-10-23T03:45:55.532Z,3.70
2022-10-23T03:48:26.574Z,3.83
2022-10-23T03:50:54.899Z,3.00
2022-10-23T03:53:23.230Z,3.47
2022-10-23T03:55:52.335Z,2.80
2022-10-23T03:58:20.610Z,3.23
2022-10-23T04:00:49.355Z,3.17
2022-10-23T04:03:17.950Z,2.80
2022-10-23T04:05:51.953Z,2.50
2022-10-23T04:08:20.717Z,3.20
2022-10-23T04:10:49.190Z,3.20
2022-10-23T04:13:17.575Z,3.13
2022-10-23T04:15:52.354Z,3.47
2022-10-23T04:18:21.025Z,3.50
2022-10-23T04:21:09.976Z,3.20
2022-10-23T04:23:38.619Z,2.87
2022-10-23T04:26:08.554Z,3.17
2022-10-23T04:28:37.242Z,3.00
2022-10-23T04:31:06.423Z,3.60
2022-10-23T04:33:35.341Z,3.30
2022-10-23T04:36:11.598Z,3.43
2022-10-23T04:38:39.779Z,3.43
2022-10-23T04:41:08.935Z,4.10
2022-10-23T04:43:37.724Z,3.17
2022-10-23T04:46:06.571Z,3.30
2022-10-23T04:48:37.339Z,3.37
2022-10-23T04:51:07.529Z,3.70
2022-10-23T04:53:39.118Z,3.30
2022-10-23T04:56:16.373Z,3.10
2022-10-23T04:58:44.680Z,2.93
2022-10-23T05:01:13.238Z,3.40
2022-10-23T05:03:43.386Z,3.27
2022-10-23T05:06:12.856Z,3.60
2022-10-23T05:08:45.622Z,3.57
2022-10-23T05:11:13.901Z,3.60
2022-10-23T05:13:43.953Z,3.10
2022-10-23T05:16:18.665Z,3.07
2022-10-23T05:18:50.410Z,3.00
2022-10-23T05:21:27.109Z,3.00
2022-10-23T05:23:57.471Z,3.17
2022-10-23T05:26:26.384Z,3.23
2022-10-23T05:28:54.784Z,2.97
2022-10-23T05:31:26.735Z,2.97
2022-10-23T05:33:58.535Z,2.83
2022-10-23T05:36:28.066Z,3.10
2022-10-23T05:38:59.144Z,2.90
2022-10-23T05:41:27.344Z,3.13
2022-10-23T05:43:58.668Z,3.20
2022-10-23T05:46:33.185Z,3.00
2022-10-23T05:49:01.514Z,2.70
2022-10-23T05:51:31.366Z,3.00
2022-10-23T05:54:01.064Z,2.63
2022-10-23T05:56:35.646Z,2.83
2022-10-23T05:59:03.991Z,2.87
2022-10-23T06:01:32.838Z,2.97
2022-10-23T06:04:02.003Z,2.90
2022-10-23T06:06:40.689Z,3.50
2022-10-23T06:09:12.589Z,2.60
2022-10-23T06:11:41.067Z,3.23
2022-10-23T06:14:23.604Z,3.10
2022-10-23T06:16:52.111Z,2.90
2022-10-23T06:19:20.568Z,3.30
2022-10-23T06:21:55.166Z,3.30
2022-10-23T06:24:27.494Z,3.40
2022-10-23T06:26:56.678Z,3.23
2022-10-23T06:29:31.256Z,3.80
2022-10-23T06:32:01.196Z,3.00
2022-10-23T06:34:29.516Z,3.70
2022-10-23T06:36:59.005Z,3.53
2022-10-23T06:39:32.305Z,3.43
2022-10-23T06:42:00.908Z,3.50
2022-10-23T06:44:29.130Z,3.53
2022-10-23T06:46:57.278Z,3.63
2022-10-23T06:49:25.800Z,3.67
2022-10-23T06:51:53.942Z,3.33
2022-10-23T06:54:28.860Z,3.40
2022-10-23T06:56:59.156Z,3.40
2022-10-23T06:59:27.534Z,3.40
2022-10-23T07:01:55.944Z,3.90
2022-10-23T07:04:26.145Z,3.77
2022-10-23T07:06:57.727Z,3.33
2022-10-23T07:09:26.057Z,3.30
2022-10-23T07:11:54.116Z,3.70
2022-10-23T07:14:26.419Z,3.73
2022-10-23T07:16:55.418Z,3.47
2022-10-23T07:19:24.028Z,3.03
2022-10-23T07:21:53.911Z,3.20
2022-10-23T07:24:22.430Z,3.20
2022-10-23T07:26:55.992Z,3.37
2022-10-23T07:29:25.948Z,3.30
2022-10-23T07:31:54.215Z,3.20
2022-10-23T07:34:24.399Z,3.10
2022-10-23T07:36:57.299Z,3.43
2022-10-23T07:39:25.633Z,3.50
2022-10-23T07:41:53.887Z,3.77
2022-10-23T07:44:27.635Z,3.77
2022-10-23T07:46:57.721Z,3.53
2022-10-23T07:49:29.501Z,3.83
2022-10-23T07:51:59.099Z,3.90
2022-10-23T07:54:28.805Z,4.00
2022-10-23T07:56:57.098Z,3.87
2022-10-23T07:59:26.693Z,4.30
2022-10-23T08:01:56.837Z,3.97
2022-10-23T08:04:28.440Z,3.80
2022-10-23T08:07:01.464Z,3.97
2022-10-23T08:09:38.419Z,4.10
2022-10-23T08:12:10.428Z,4.27
2022-10-23T08:14:56.401Z,4.00
2022-10-23T08:17:26.402Z,3.80
2022-10-23T08:20:08.519Z,3.73
2022-10-23T08:22:39.179Z,3.70
2022-10-23T08:25:08.605Z,4.33
2022-10-23T08:27:40.712Z,4.30
2022-10-23T08:30:10.226Z,4.37
2022-10-23T08:32:39.692Z,4.10
2022-10-23T08:35:15.465Z,4.33
2022-10-23T08:37:44.246Z,3.83
2022-10-23T08:40:21.279Z,4.40
2022-10-23T08:42:59.635Z,4.37
2022-10-23T08:45:36.854Z,4.40
2022-10-23T08:48:15.214Z,4.30
2022-10-23T08:50:51.135Z,3.90
2022-10-23T08:53:24.435Z,4.70
2022-10-23T08:56:11.454Z,4.97
2022-10-23T08:58:46.549Z,4.33
2022-10-23T09:01:30.047Z,5.23
2022-10-23T09:03:58.782Z,4.80
2022-10-23T09:06:40.423Z,4.77
2022-10-23T09:09:39.684Z,4.47
2022-10-23T09:12:17.529Z,5.10
2022-10-23T09:15:22.331Z,5.30
2022-10-23T09:18:13.758Z,5.53
2022-10-23T09:20:50.402Z,5.97
2022-10-23T09:23:24.654Z,5.97
2022-10-23T09:25:57.465Z,5.97
2022-10-23T09:28:27.541Z,5.70
2022-10-23T09:31:23.091Z,5.60
2022-10-23T09:34:01.695Z,5.40
2022-10-23T09:36:31.619Z,5.87
2022-10-23T09:39:02.909Z,5.60
2022-10-23T09:41:45.198Z,5.90
2022-10-23T09:44:23.301Z,6.33
2022-10-23T09:46:54.687Z,5.60
2022-10-23T09:49:25.120Z,6.43
2022-10-23T09:52:03.254Z,6.83
2022-10-23T09:54:39.537Z,5.90
2022-10-23T09:57:31.373Z,5.87
2022-10-23T10:00:21.812Z,6.70
2022-10-23T10:03:02.086Z,6.13
2022-10-23T10:05:35.423Z,6.20
2022-10-23T10:08:21.180Z,6.17
2022-10-23T10:10:57.183Z,6.17
2022-10-23T10:13:48.487Z,6.43
2022-10-23T10:16:29.074Z,6.50
2022-10-23T10:19:07.546Z,6.63
2022-10-23T10:21:59.975Z,6.03
2022-10-23T10:24:58.204Z,5.43
2022-10-23T10:27:41.736Z,5.90
2022-10-23T10:30:17.925Z,5.73
2022-10-23T10:33:16.271Z,6.03
2022-10-23T10:35:56.293Z,5.70
2022-10-23T10:38:49.230Z,5.43
2022-10-23T10:41:43.674Z,5.23
2022-10-23T10:44:29.578Z,5.37
2022-10-23T10:47:02.120Z,5.13
2022-10-23T10:49:37.558Z,5.50
2022-10-23T10:52:24.437Z,5.10
2022-10-23T10:55:17.969Z,4.70
2022-10-23T10:57:50.926Z,5.20
2022-10-23T11:00:24.296Z,5.40
2022-10-23T11:03:00.137Z,5.67
2022-10-23T11:05:34.139Z,5.30
2022-10-23T11:08:14.047Z,5.07
2022-10-23T11:10:51.419Z,5.70
2022-10-23T11:13:29.401Z,5.33
2022-10-23T11:16:03.845Z,5.57
2022-10-23T11:18:43.323Z,6.10
2022-10-23T11:21:32.125Z,6.07
2022-10-23T11:24:30.762Z,5.50
2022-10-23T11:27:21.176Z,5.70
2022-10-23T11:30:25.634Z,6.20
2022-10-23T11:33:42.612Z,6.33
2022-10-23T11:36:20.247Z,5.20
2022-10-23T11:38:54.682Z,6.03
2022-10-23T11:41:31.302Z,6.23
2022-10-23T11:44:06.265Z,6.43
2022-10-23T11:46:47.055Z,6.00
2022-10-23T11:49:24.288Z,5.90
2022-10-23T11:52:21.892Z,6.10
2022-10-23T11:54:50.345Z,6.57
2022-10-23T11:57:19.534Z,6.47
2022-10-23T12:00:10.074Z,6.50
2022-10-23T12:02:43.383Z,7.43
2022-10-23T12:05:33.567Z,6.60
2022-10-23T12:08:03.916Z,6.03
2022-10-23T12:10:35.490Z,6.40
2022-10-23T12:13:05.849Z,6.47
2022-10-23T12:15:35.858Z,6.70
2022-10-23T12:18:22.598Z,7.03
2022-10-23T12:20:55.432Z,7.03
2022-10-23T12:23:49.425Z,6.80
2022-10-23T12:26:52.573Z,6.63
2022-10-23T12:29:33.958Z,6.17
2022-10-23T12:32:10.070Z,6.03
2022-10-23T12:34:48.898Z,6.80
2022-10-23T12:37:55.170Z,6.60
2022-10-23T12:40:30.259Z,6.60
2022-10-23T12:43:00.982Z,6.07
2022-10-23T12:45:35.195Z,6.13
2022-10-23T13:06:45.119Z,5.13
2022-10-23T13:09:24.788Z,5.80
2022-10-23T13:12:06.321Z,5.33
2022-10-23T13:14:56.861Z,5.63
2022-10-23T13:17:46.821Z,4.80
2022-10-23T13:20:24.170Z,4.97
2022-10-23T13:23:00.711Z,4.83
2022-10-23T13:25:31.962Z,5.50
2022-10-23T13:28:28.228Z,5.10
2022-10-23T13:31:15.489Z,4.90
2022-10-23T13:33:44.894Z,5.27
2022-10-23T13:36:44.134Z,5.10
2022-10-23T13:39:17.193Z,5.07
2022-10-23T13:41:47.571Z,5.57
2022-10-23T13:44:18.972Z,4.70
2022-10-23T13:46:48.410Z,5.87
2022-10-23T13:49:17.074Z,4.70
2022-10-23T13:51:49.867Z,5.70
2022-10-23T13:54:21.407Z,4.63
2022-10-23T13:56:49.895Z,5.30
2022-10-23T13:59:18.821Z,5.50
2022-10-23T14:01:51.225Z,5.87
2022-10-23T14:07:02.250Z,5.37
2022-10-23T14:09:31.904Z,5.57
2022-10-23T14:11:59.969Z,5.70
2022-10-23T14:14:28.010Z,5.90
2022-10-23T14:16:56.070Z,5.63
2022-10-23T14:19:24.154Z,5.20
2022-10-23T14:21:52.157Z,5.30
2022-10-23T14:24:21.789Z,5.13
2022-10-23T14:26:52.368Z,5.00
2022-10-23T14:29:24.133Z,4.53
2022-10-23T14:31:52.728Z,4.87
2022-10-23T14:34:21.059Z,5.13
2022-10-23T14:36:50.210Z,5.20
2022-10-23T14:39:19.224Z,4.73
2022-10-23T14:41:47.303Z,5.53
2022-10-23T14:44:16.731Z,5.07
2022-10-23T14:46:45.232Z,5.50
2022-10-23T14:49:16.287Z,5.03
2022-10-23T14:51:44.417Z,4.27
2022-10-23T14:54:16.875Z,4.60
2022-10-23T14:56:45.026Z,4.57
2022-10-23T14:59:17.526Z,5.07
2022-10-23T15:01:48.345Z,3.93
2022-10-23T15:04:16.979Z,4.83
2022-10-23T15:06:46.615Z,4.90
2022-10-23T15:09:16.234Z,4.60
2022-10-23T15:11:44.283Z,4.83
2022-10-23T15:14:15.511Z,5.00
2022-10-23T15:16:44.965Z,4.80
2022-10-23T15:19:18.514Z,5.20
2022-10-23T15:21:47.328Z,4.63
2022-10-23T15:24:15.575Z,5.17
2022-10-23T15:26:44.626Z,5.00
2022-10-23T15:29:13.086Z,5.33
2022-10-23T15:31:43.147Z,4.50
2022-10-23T15:34:18.776Z,4.87
2022-10-23T15:36:58.717Z,4.70
2022-10-23T15:39:28.640Z,4.53
2022-10-23T15:41:59.978Z,4.73
2022-10-23T15:44:30.060Z,4.50
2022-10-23T15:46:58.787Z,4.57
2022-10-23T15:49:30.615Z,4.33
2022-10-23T15:51:58.837Z,5.20
2022-10-23T15:54:29.344Z,4.70
2022-10-23T15:57:02.675Z,5.40
2022-10-23T15:59:32.263Z,5.30
2022-10-23T16:02:00.392Z,4.27
2022-10-23T16:04:30.256Z,5.37
2022-10-23T16:07:03.072Z,5.30
2022-10-23T16:09:31.119Z,4.70
2022-10-23T16:11:59.549Z,5.43
2022-10-23T16:14:27.545Z,4.70
2022-10-23T16:16:55.572Z,4.40
2022-10-23T16:19:23.625Z,3.87
2022-10-23T16:22:02.952Z,4.53
2022-10-23T16:24:31.823Z,4.33
2022-10-23T16:26:59.912Z,4.43
2022-10-23T16:29:29.576Z,3.90
2022-10-23T16:31:59.865Z,4.13
2022-10-23T16:34:27.857Z,4.27
2022-10-23T16:37:03.567Z,4.43
2022-10-23T16:39:31.784Z,4.83
2022-10-23T16:41:59.888Z,4.40
2022-10-23T16:44:28.096Z,4.47
2022-10-23T16:46:56.432Z,4.33
2022-10-23T16:49:24.781Z,5.20
2022-10-23T16:51:58.741Z,4.83
2022-10-23T16:54:28.357Z,4.93
2022-10-23T16:56:56.415Z,4.60
2022-10-23T16:59:24.423Z,5.23
2022-10-23T17:01:53.261Z,4.77
2022-10-23T17:04:21.407Z,5.57
2022-10-23T17:06:52.320Z,5.50
2022-10-23T17:09:20.414Z,4.73
2022-10-23T17:11:51.185Z,5.30
2022-10-23T17:14:21.253Z,5.00
2022-10-23T17:16:56.254Z,5.43
2022-10-23T17:19:44.546Z,5.27
2022-10-23T17:22:14.102Z,5.00
2022-10-23T17:25:02.782Z,4.93
2022-10-23T17:27:32.244Z,5.33
2022-10-23T17:30:03.053Z,5.13
2022-10-23T17:32:31.308Z,5.20
2022-10-23T17:34:59.308Z,5.10
2022-10-23T17:37:27.451Z,5.27
2022-10-23T17:39:57.990Z,5.40
2022-10-23T17:42:28.008Z,5.47
2022-10-23T17:44:57.647Z,5.47
2022-10-23T17:47:25.816Z,5.80
2022-10-23T17:49:53.864Z,5.27
2022-10-23T17:52:25.398Z,5.20
2022-10-23T17:54:53.956Z,5.20
2022-10-23T17:59:51.061Z,5.33
2022-10-23T18:02:20.648Z,4.97
2022-10-23T18:04:48.919Z,4.97
2022-10-23T18:07:17.434Z,5.70
2022-10-23T18:09:54.556Z,5.37
2022-10-23T18:12:23.140Z,5.07
2022-10-23T18:14:51.908Z,5.00
2022-10-23T18:17:21.401Z,5.10
2022-10-23T18:19:58.356Z,5.47
2022-10-23T18:22:30.505Z,5.23
2022-10-23T18:24:58.781Z,5.73
2022-10-23T18:27:27.497Z,5.13
2022-10-23T18:29:55.480Z,5.40
2022-10-23T18:32:30.436Z,5.10
2022-10-23T18:34:58.491Z,5.23
2022-10-23T18:37:28.893Z,5.13
2022-10-23T18:39:59.840Z,5.37
2022-10-23T18:42:29.285Z,5.27
2022-10-23T18:44:57.298Z,4.90
2022-10-23T18:47:28.320Z,5.07
2022-10-23T18:49:56.288Z,5.37
2022-10-23T18:52:24.492Z,4.87
2022-10-23T18:54:52.530Z,5.20
2022-10-23T18:57:20.726Z,4.77
2022-10-23T18:59:50.280Z,5.77
2022-10-23T19:02:18.893Z,5.10
2022-10-23T19:04:48.477Z,5.00
2022-10-23T19:07:18.503Z,4.50
2022-10-23T19:09:46.581Z,4.37
2022-10-23T19:14:47.647Z,4.57
2022-10-23T19:17:19.904Z,4.60
2022-10-23T19:19:53.109Z,4.57
2022-10-23T19:22:21.505Z,4.97
2022-10-23T19:24:52.582Z,3.67
2022-10-23T19:27:24.092Z,4.50
2022-10-23T19:29:54.214Z,4.67
2022-10-23T19:32:22.457Z,4.00
2022-10-23T19:34:51.847Z,4.70
2022-10-23T19:37:19.906Z,4.50
2022-10-23T19:39:47.892Z,4.13
2022-10-23T19:42:15.899Z,4.50
2022-10-23T19:44:43.861Z,4.53
2022-10-23T19:47:12.004Z,4.70
2022-10-23T19:49:41.704Z,4.33
2022-10-23T19:52:11.000Z,4.30
2022-10-23T19:54:41.136Z,4.40
2022-10-23T19:57:09.246Z,4.00
2022-10-23T19:59:37.340Z,4.77
2022-10-23T20:02:05.599Z,3.63
2022-10-23T20:04:36.481Z,3.93
2022-10-23T20:07:04.574Z,3.97
2022-10-23T20:09:35.342Z,4.07
2022-10-23T20:12:03.728Z,3.97
2022-10-23T20:14:32.073Z,3.40
2022-10-23T20:17:01.632Z,4.23
2022-10-23T20:19:30.061Z,3.90
2022-10-23T20:21:58.120Z,4.20
2022-10-23T20:24:26.219Z,3.67
2022-10-23T20:26:56.676Z,3.83
2022-10-23T20:29:29.660Z,3.67
2022-10-23T20:31:57.743Z,3.87
2022-10-23T20:34:26.520Z,4.00
2022-10-23T20:36:54.890Z,4.00
2022-10-23T20:39:27.067Z,4.13
2022-10-23T20:41:58.213Z,4.10
2022-10-23T20:44:26.552Z,3.53
2022-10-23T20:46:55.229Z,3.70
2022-10-23T20:49:27.663Z,4.80
2022-10-23T20:51:57.254Z,3.77
2022-10-23T20:54:27.591Z,3.43
2022-10-23T20:56:58.909Z,3.60
2022-10-23T20:59:27.069Z,4.17
2022-10-23T21:01:57.798Z,3.57
2022-10-23T21:04:28.089Z,3.90
2022-10-23T21:07:16.443Z,3.67
2022-10-23T21:09:44.544Z,3.57
2022-10-23T21:12:14.076Z,3.10
2022-10-23T21:14:42.215Z,3.57
2022-10-23T21:17:17.005Z,3.47
2022-10-23T21:19:45.239Z,3.53
2022-10-23T21:22:13.283Z,3.50
2022-10-23T21:24:41.382Z,3.20
2022-10-23T21:27:11.046Z,3.63
2022-10-23T21:29:41.072Z,3.17
2022-10-23T21:32:09.157Z,3.10
2022-10-23T21:34:37.459Z,3.77
2022-10-23T21:37:14.158Z,4.57
2022-10-23T21:39:43.277Z,3.70
2022-10-23T21:42:26.602Z,3.00
2022-10-23T21:44:56.285Z,3.63
2022-10-23T21:47:28.246Z,3.83
2022-10-23T21:49:56.387Z,3.50
2022-10-23T21:52:25.332Z,3.47
2022-10-23T21:54:53.730Z,3.53
2022-10-23T21:57:22.323Z,3.43
2022-10-23T21:59:50.410Z,3.37
2022-10-23T22:02:20.428Z,3.30
2022-10-23T22:04:48.531Z,3.47
2022-10-23T22:07:16.677Z,3.40
2022-10-23T22:09:45.289Z,3.30
2022-10-23T22:12:13.631Z,3.37
2022-10-23T22:14:42.584Z,3.93
2022-10-23T22:17:13.158Z,3.43
2022-10-23T22:19:42.707Z,3.47
2022-10-23T22:22:10.877Z,3.40
2022-10-23T22:24:38.910Z,3.73
2022-10-23T22:27:07.049Z,3.50
2022-10-23T22:29:35.489Z,3.77
2022-10-23T22:32:03.690Z,3.30
2022-10-23T22:34:52.408Z,3.77
2022-10-23T22:37:26.089Z,3.53
2022-10-23T22:39:54.357Z,3.67
2022-10-23T22:42:22.394Z,3.67
2022-10-23T22:44:57.379Z,3.57
2022-10-23T22:47:25.507Z,3.40
2022-10-23T22:49:53.616Z,3.90
2022-10-23T22:52:26.177Z,3.47
2022-10-23T22:54:54.187Z,3.70
2022-10-23T22:57:22.206Z,3.50
2022-10-23T22:59:50.408Z,3.50
2022-10-23T23:02:18.517Z,3.77
2022-10-23T23:04:47.189Z,3.77
2022-10-23T23:07:15.451Z,3.30
2022-10-23T23:09:46.115Z,3.90
2022-10-23T23:12:15.672Z,3.70
2022-10-23T23:14:45.196Z,3.60
2022-10-23T23:17:13.365Z,3.57
2022-10-23T23:19:41.417Z,3.80
2022-10-23T23:22:09.481Z,3.50
2022-10-23T23:24:37.553Z,3.33
2022-10-23T23:27:06.934Z,3.60
2022-10-23T23:29:35.050Z,3.30
2022-10-23T23:32:05.077Z,3.70
2022-10-23T23:34:33.460Z,3.60
2022-10-23T23:37:01.926Z,3.80
2022-10-23T23:39:30.185Z,3.67
2022-10-23T23:41:58.445Z,4.17
2022-10-23T23:44:27.882Z,3.63
2022-10-23T23:46:56.272Z,3.60
2022-10-23T23:49:24.322Z,3.10
2022-10-23T23:52:10.096Z,3.20
2022-10-23T23:54:38.098Z,3.20
2022-10-23T23:57:06.649Z,3.20
2022-10-23T23:59:49.616Z,2.90
